sensor_id;sensor_type;location;lat;lon;timestamp;P1;durP1;ratioP1;P2;durP2;ratioP2
18399;SDS011;9326;49.468;11.008;2022-07-23T05:00:41;9.47;;;8.53;;
18399;SDS011;9326;49.468;11.008;2022-07-23T05:03:08;8.40;;;7.80;;
18399;SDS011;9326;49.468;11.008;2022-07-23T05:05:35;9.07;;;7.43;;
18399;SDS011;9326;49.468;11.008;2022-07-23T05:08:04;8.70;;;7.90;;
18399;SDS011;9326;49.468;11.008;2022-07-23T05:10:31;8.13;;;7.33;;
18399;SDS011;9326;49.468;11.008;2022-07-23T05:12:59;7.00;;;6.40;;
18399;SDS011;9326;49.468;11.008;2022-07-23T05:15:27;6.90;;;6.30;;
18399;SDS011;9326;49.468;11.008;2022-07-23T05:17:55;7.10;;;6.53;;
18399;SDS011;9326;49.468;11.008;2022-07-23T05:20:22;7.43;;;6.43;;
18399;SDS011;9326;49.468;11.008;2022-07-23T05:22:49;6.53;;;5.87;;
18399;SDS011;9326;49.468;11.008;2022-07-23T05:25:16;6.40;;;5.90;;
18399;SDS011;9326;49.468;11.008;2022-07-23T05:27:43;6.23;;;5.63;;
18399;SDS011;9326;49.468;11.008;2022-07-23T05:30:11;6.30;;;5.70;;
18399;SDS011;9326;49.468;11.008;2022-07-23T05:32:38;6.77;;;5.83;;
18399;SDS011;9326;49.468;11.008;2022-07-23T05:35:07;6.30;;;5.80;;
18399;SDS011;9326;49.468;11.008;2022-07-23T05:37:34;5.60;;;5.20;;
18399;SDS011;9326;49.468;11.008;2022-07-23T05:40:02;5.57;;;5.07;;
18399;SDS011;9326;49.468;11.008;2022-07-23T05:42:31;5.87;;;5.43;;
18399;SDS011;9326;49.468;11.008;2022-07-23T05:44:58;5.47;;;5.00;;
18399;SDS011;9326;49.468;11.008;2022-07-23T05:47:25;6.10;;;5.00;;
18399;SDS011;9326;49.468;11.008;2022-07-23T05:49:52;5.13;;;4.73;;
18399;SDS011;9326;49.468;11.008;2022-07-23T05:52:20;4.63;;;4.33;;
18399;SDS011;9326;49.468;11.008;2022-07-23T05:54:47;5.10;;;4.80;;
18399;SDS011;9326;49.468;11.008;2022-07-23T05:57:14;4.97;;;4.57;;
18399;SDS011;9326;49.468;11.008;2022-07-23T05:59:42;5.90;;;5.10;;
18399;SDS011;9326;49.468;11.008;2022-07-23T06:02:09;5.93;;;5.27;;
18399;SDS011;9326;49.468;11.008;2022-07-23T06:04:36;5.90;;;5.03;;
18399;SDS011;9326;49.468;11.008;2022-07-23T06:07:03;5.17;;;4.70;;
18399;SDS011;9326;49.468;11.008;2022-07-23T06:09:31;5.47;;;4.80;;
18399;SDS011;9326;49.468;11.008;2022-07-23T06:11:58;5.47;;;4.97;;
18399;SDS011;9326;49.468;11.008;2022-07-23T06:14:25;6.83;;;5.17;;
18399;SDS011;9326;49.468;11.008;2022-07-23T06:16:52;5.33;;;4.93;;
18399;SDS011;9326;49.468;11.008;2022-07-23T06:19:19;5.20;;;4.70;;
18399;SDS011;9326;49.468;11.008;2022-07-23T06:21:47;5.50;;;4.97;;
18399;SDS011;9326;49.468;11.008;2022-07-23T06:24:14;4.77;;;4.37;;
18399;SDS011;9326;49.468;11.008;2022-07-23T06:26:42;5.10;;;4.70;;
18399;SDS011;9326;49.468;11.008;2022-07-23T06:29:09;5.17;;;4.67;;
18399;SDS011;9326;49.468;11.008;2022-07-23T06:31:36;5.10;;;4.60;;
18399;SDS011;9326;49.468;11.008;2022-07-23T06:34:03;5.47;;;4.97;;
18399;SDS011;9326;49.468;11.008;2022-07-23T06:36:30;5.43;;;4.93;;
18399;SDS011;9326;49.468;11.008;2022-07-23T06:38:57;5.47;;;5.07;;
18399;SDS011;9326;49.468;11.008;2022-07-23T06:41:25;5.57;;;5.07;;
18399;SDS011;9326;49.468;11.008;2022-07-23T06:43:53;6.10;;;5.23;;
18399;SDS011;9326;49.468;11.008;2022-07-23T06:46:20;5.27;;;4.87;;
18399;SDS011;9326;49.468;11.008;2022-07-23T06:48:47;5.03;;;4.70;;
18399;SDS011;9326;49.468;11.008;2022-07-23T06:51:14;6.30;;;5.03;;
18399;SDS011;9326;49.468;11.008;2022-07-23T06:53:41;5.60;;;5.07;;
18399;SDS011;9326;49.468;11.008;2022-07-23T06:56:08;13.63;;;12.27;;
18399;SDS011;9326;49.468;11.008;2022-07-23T06:58:35;5.40;;;5.00;;
18399;SDS011;9326;49.468;11.008;2022-07-23T07:01:04;5.88;;;5.30;;
18399;SDS011;9326;49.468;11.008;2022-07-23T07:03:31;5.75;;;5.28;;
18399;SDS011;9326;49.468;11.008;2022-07-23T07:05:58;6.22;;;5.63;;
18399;SDS011;9326;49.468;11.008;2022-07-23T07:08:25;6.45;;;5.88;;
18399;SDS011;9326;49.468;11.008;2022-07-23T07:10:52;6.65;;;5.97;;
18399;SDS011;9326;49.468;11.008;2022-07-23T07:13:19;7.03;;;6.53;;
18399;SDS011;9326;49.468;11.008;2022-07-23T07:15:46;6.47;;;5.97;;
18399;SDS011;9326;49.468;11.008;2022-07-23T07:18:15;7.33;;;6.60;;
18399;SDS011;9326;49.468;11.008;2022-07-23T07:20:42;6.47;;;5.97;;
18399;SDS011;9326;49.468;11.008;2022-07-23T07:23:09;7.30;;;6.60;;
18399;SDS011;9326;49.468;11.008;2022-07-23T07:25:36;7.27;;;6.57;;
18399;SDS011;9326;49.468;11.008;2022-07-23T07:28:03;7.50;;;6.80;;
18399;SDS011;9326;49.468;11.008;2022-07-23T07:30:30;7.33;;;6.73;;
18399;SDS011;9326;49.468;11.008;2022-07-23T07:32:57;7.00;;;6.40;;
18399;SDS011;9326;49.468;11.008;2022-07-23T07:35:25;7.50;;;6.80;;
18399;SDS011;9326;49.468;11.008;2022-07-23T07:37:53;7.90;;;6.80;;
18399;SDS011;9326;49.468;11.008;2022-07-23T07:40:20;7.20;;;6.60;;
18399;SDS011;9326;49.468;11.008;2022-07-23T07:42:49;7.40;;;6.80;;
18399;SDS011;9326;49.468;11.008;2022-07-23T07:45:17;8.17;;;6.70;;
18399;SDS011;9326;49.468;11.008;2022-07-23T07:47:46;7.67;;;6.97;;
18399;SDS011;9326;49.468;11.008;2022-07-23T07:50:13;8.87;;;7.70;;
18399;SDS011;9326;49.468;11.008;2022-07-23T07:52:42;8.33;;;7.37;;
18399;SDS011;9326;49.468;11.008;2022-07-23T07:55:09;10.73;;;8.00;;
18399;SDS011;9326;49.468;11.008;2022-07-23T07:57:39;9.57;;;8.67;;
18399;SDS011;9326;49.468;11.008;2022-07-23T08:00:07;9.23;;;8.47;;
18399;SDS011;9326;49.468;11.008;2022-07-23T08:02:39;10.00;;;9.00;;
18399;SDS011;9326;49.468;11.008;2022-07-23T08:05:06;11.33;;;10.33;;
18399;SDS011;9326;49.468;11.008;2022-07-23T08:07:33;10.10;;;9.20;;
18399;SDS011;9326;49.468;11.008;2022-07-23T08:10:02;11.83;;;9.60;;
18399;SDS011;9326;49.468;11.008;2022-07-23T08:12:37;9.90;;;9.00;;
18399;SDS011;9326;49.468;11.008;2022-07-23T08:15:04;10.20;;;9.40;;
18399;SDS011;9326;49.468;11.008;2022-07-23T08:17:31;11.13;;;10.13;;
18399;SDS011;9326;49.468;11.008;2022-07-23T08:19:58;9.63;;;8.73;;
18399;SDS011;9326;49.468;11.008;2022-07-23T08:22:25;9.77;;;8.77;;
18399;SDS011;9326;49.468;11.008;2022-07-23T08:25:09;8.50;;;7.70;;
18399;SDS011;9326;49.468;11.008;2022-07-23T08:27:36;8.87;;;8.07;;
18399;SDS011;9326;49.468;11.008;2022-07-23T08:30:04;9.00;;;8.23;;
18399;SDS011;9326;49.468;11.008;2022-07-23T08:32:33;8.80;;;8.10;;
18399;SDS011;9326;49.468;11.008;2022-07-23T08:35:00;8.47;;;7.67;;
18399;SDS011;9326;49.468;11.008;2022-07-23T08:37:27;8.30;;;7.57;;
18399;SDS011;9326;49.468;11.008;2022-07-23T08:39:54;8.60;;;7.80;;
18399;SDS011;9326;49.468;11.008;2022-07-23T08:42:22;8.83;;;7.30;;
18399;SDS011;9326;49.468;11.008;2022-07-23T08:44:49;6.90;;;6.30;;
18399;SDS011;9326;49.468;11.008;2022-07-23T08:47:17;7.80;;;6.63;;
18399;SDS011;9326;49.468;11.008;2022-07-23T08:49:44;7.27;;;6.73;;
18399;SDS011;9326;49.468;11.008;2022-07-23T08:52:13;7.50;;;6.80;;
18399;SDS011;9326;49.468;11.008;2022-07-23T08:54:40;7.93;;;7.33;;
18399;SDS011;9326;49.468;11.008;2022-07-23T08:57:07;7.67;;;7.07;;
18399;SDS011;9326;49.468;11.008;2022-07-23T08:59:35;7.70;;;7.00;;
18399;SDS011;9326;49.468;11.008;2022-07-23T09:02:03;7.77;;;7.17;;
18399;SDS011;9326;49.468;11.008;2022-07-23T09:04:30;7.77;;;7.17;;
18399;SDS011;9326;49.468;11.008;2022-07-23T09:06:57;8.03;;;7.23;;
18399;SDS011;9326;49.468;11.008;2022-07-23T09:09:25;8.33;;;7.53;;
18399;SDS011;9326;49.468;11.008;2022-07-23T09:12:01;7.83;;;7.17;;
18399;SDS011;9326;49.468;11.008;2022-07-23T09:14:40;10.73;;;9.73;;
18399;SDS011;9326;49.468;11.008;2022-07-23T09:17:08;7.93;;;7.17;;
18399;SDS011;9326;49.468;11.008;2022-07-23T09:19:35;7.27;;;6.67;;
18399;SDS011;9326;49.468;11.008;2022-07-23T09:22:16;7.70;;;7.00;;
18399;SDS011;9326;49.468;11.008;2022-07-23T09:27:25;7.70;;;7.00;;
18399;SDS011;9326;49.468;11.008;2022-07-23T09:30:12;7.07;;;6.47;;
18399;SDS011;9326;49.468;11.008;2022-07-23T09:32:39;7.67;;;6.97;;
18399;SDS011;9326;49.468;11.008;2022-07-23T09:35:07;7.53;;;6.83;;
18399;SDS011;9326;49.468;11.008;2022-07-23T09:37:34;8.43;;;7.63;;
18399;SDS011;9326;49.468;11.008;2022-07-23T09:40:05;8.17;;;7.13;;
18399;SDS011;9326;49.468;11.008;2022-07-23T09:42:33;8.13;;;7.33;;
18399;SDS011;9326;49.468;11.008;2022-07-23T09:45:00;7.63;;;6.93;;
18399;SDS011;9326;49.468;11.008;2022-07-23T09:47:29;7.90;;;7.20;;
18399;SDS011;9326;49.468;11.008;2022-07-23T09:50:00;8.90;;;8.03;;
18399;SDS011;9326;49.468;11.008;2022-07-23T09:52:30;8.83;;;8.03;;
18399;SDS011;9326;49.468;11.008;2022-07-23T09:54:57;7.80;;;7.10;;
18399;SDS011;9326;49.468;11.008;2022-07-23T09:57:25;7.80;;;7.10;;
18399;SDS011;9326;49.468;11.008;2022-07-23T09:59:52;8.27;;;7.47;;
18399;SDS011;9326;49.468;11.008;2022-07-23T10:02:19;7.97;;;7.07;;
18399;SDS011;9326;49.468;11.008;2022-07-23T10:04:48;8.47;;;7.67;;
18399;SDS011;9326;49.468;11.008;2022-07-23T10:07:17;8.70;;;7.80;;
18399;SDS011;9326;49.468;11.008;2022-07-23T10:09:44;8.30;;;7.57;;
18399;SDS011;9326;49.468;11.008;2022-07-23T10:12:11;8.67;;;7.87;;
18399;SDS011;9326;49.468;11.008;2022-07-23T10:14:52;9.73;;;8.87;;
18399;SDS011;9326;49.468;11.008;2022-07-23T10:17:19;9.20;;;8.40;;
18399;SDS011;9326;49.468;11.008;2022-07-23T10:19:46;9.80;;;8.80;;
18399;SDS011;9326;49.468;11.008;2022-07-23T10:22:15;8.90;;;8.10;;
18399;SDS011;9326;49.468;11.008;2022-07-23T10:24:47;9.13;;;8.23;;
18399;SDS011;9326;49.468;11.008;2022-07-23T10:27:38;9.40;;;8.57;;
18399;SDS011;9326;49.468;11.008;2022-07-23T10:30:09;9.20;;;8.40;;
18399;SDS011;9326;49.468;11.008;2022-07-23T10:32:40;9.13;;;8.33;;
18399;SDS011;9326;49.468;11.008;2022-07-23T10:35:11;8.90;;;8.10;;
18399;SDS011;9326;49.468;11.008;2022-07-23T10:37:41;10.60;;;9.60;;
18399;SDS011;9326;49.468;11.008;2022-07-23T10:40:09;10.40;;;9.47;;
18399;SDS011;9326;49.468;11.008;2022-07-23T10:42:36;10.63;;;9.63;;
18399;SDS011;9326;49.468;11.008;2022-07-23T10:47:46;11.40;;;10.40;;
18399;SDS011;9326;49.468;11.008;2022-07-23T10:50:19;10.83;;;9.83;;
18399;SDS011;9326;49.468;11.008;2022-07-23T10:55:46;10.30;;;9.37;;
18399;SDS011;9326;49.468;11.008;2022-07-23T10:58:17;9.60;;;8.80;;
18399;SDS011;9326;49.468;11.008;2022-07-23T11:00:44;10.90;;;9.80;;
18399;SDS011;9326;49.468;11.008;2022-07-23T11:03:27;10.03;;;9.13;;
18399;SDS011;9326;49.468;11.008;2022-07-23T11:05:55;10.70;;;9.70;;
18399;SDS011;9326;49.468;11.008;2022-07-23T11:08:22;9.97;;;8.97;;
18399;SDS011;9326;49.468;11.008;2022-07-23T11:10:51;10.03;;;9.13;;
18399;SDS011;9326;49.468;11.008;2022-07-23T11:13:25;9.93;;;9.03;;
18399;SDS011;9326;49.468;11.008;2022-07-23T11:18:53;8.97;;;8.27;;
18399;SDS011;9326;49.468;11.008;2022-07-23T11:24:19;8.27;;;7.47;;
18399;SDS011;9326;49.468;11.008;2022-07-23T11:26:55;7.93;;;7.23;;
18399;SDS011;9326;49.468;11.008;2022-07-23T11:29:41;7.97;;;7.37;;
18399;SDS011;9326;49.468;11.008;2022-07-23T11:32:17;8.37;;;7.67;;
18399;SDS011;9326;49.468;11.008;2022-07-23T11:34:45;7.50;;;6.90;;
18399;SDS011;9326;49.468;11.008;2022-07-23T11:37:26;7.50;;;6.90;;
18399;SDS011;9326;49.468;11.008;2022-07-23T11:39:54;8.13;;;7.43;;
18399;SDS011;9326;49.468;11.008;2022-07-23T11:42:22;8.40;;;7.70;;
18399;SDS011;9326;49.468;11.008;2022-07-23T11:44:52;7.83;;;7.17;;
18399;SDS011;9326;49.468;11.008;2022-07-23T11:47:21;7.73;;;7.13;;
18399;SDS011;9326;49.468;11.008;2022-07-23T11:49:51;8.30;;;7.50;;
18399;SDS011;9326;49.468;11.008;2022-07-23T11:52:18;8.07;;;7.37;;
18399;SDS011;9326;49.468;11.008;2022-07-23T11:54:49;8.70;;;8.00;;
18399;SDS011;9326;49.468;11.008;2022-07-23T11:57:16;7.80;;;7.20;;
18399;SDS011;9326;49.468;11.008;2022-07-23T11:59:45;8.30;;;7.50;;
18399;SDS011;9326;49.468;11.008;2022-07-23T12:02:13;8.47;;;7.67;;
18399;SDS011;9326;49.468;11.008;2022-07-23T12:04:40;8.43;;;7.73;;
18399;SDS011;9326;49.468;11.008;2022-07-23T12:07:22;8.40;;;7.80;;
18399;SDS011;9326;49.468;11.008;2022-07-23T12:09:49;8.47;;;7.63;;
18399;SDS011;9326;49.468;11.008;2022-07-23T12:12:16;8.40;;;7.70;;
18399;SDS011;9326;49.468;11.008;2022-07-23T12:14:48;8.50;;;7.87;;
18399;SDS011;9326;49.468;11.008;2022-07-23T12:17:15;8.87;;;7.97;;
18399;SDS011;9326;49.468;11.008;2022-07-23T12:19:43;8.80;;;7.50;;
18399;SDS011;9326;49.468;11.008;2022-07-23T12:22:10;7.63;;;6.93;;
18399;SDS011;9326;49.468;11.008;2022-07-23T12:24:55;8.70;;;8.00;;
18399;SDS011;9326;49.468;11.008;2022-07-23T12:27:22;8.57;;;7.87;;
18399;SDS011;9326;49.468;11.008;2022-07-23T12:29:51;9.40;;;7.67;;
18399;SDS011;9326;49.468;11.008;2022-07-23T12:32:19;8.10;;;7.30;;
18399;SDS011;9326;49.468;11.008;2022-07-23T12:34:47;8.43;;;7.63;;
18399;SDS011;9326;49.468;11.008;2022-07-23T12:37:25;7.83;;;7.23;;
18399;SDS011;9326;49.468;11.008;2022-07-23T12:39:52;7.97;;;7.30;;
18399;SDS011;9326;49.468;11.008;2022-07-23T12:42:19;7.70;;;7.00;;
18399;SDS011;9326;49.468;11.008;2022-07-23T12:45:10;7.20;;;6.70;;
18399;SDS011;9326;49.468;11.008;2022-07-23T12:47:51;7.57;;;6.97;;
18399;SDS011;9326;49.468;11.008;2022-07-23T12:53:14;7.80;;;7.20;;
18399;SDS011;9326;49.468;11.008;2022-07-23T12:55:41;7.73;;;7.13;;
18399;SDS011;9326;49.468;11.008;2022-07-23T12:58:10;7.00;;;6.50;;
18399;SDS011;9326;49.468;11.008;2022-07-23T13:00:58;7.23;;;6.70;;
18399;SDS011;9326;49.468;11.008;2022-07-23T13:03:27;7.83;;;7.13;;
18399;SDS011;9326;49.468;11.008;2022-07-23T13:05:55;7.57;;;6.87;;
18399;SDS011;9326;49.468;11.008;2022-07-23T13:08:22;7.90;;;7.20;;
18399;SDS011;9326;49.468;11.008;2022-07-23T13:10:49;7.93;;;7.30;;
18399;SDS011;9326;49.468;11.008;2022-07-23T13:13:19;8.30;;;7.50;;
18399;SDS011;9326;49.468;11.008;2022-07-23T13:15:47;7.80;;;7.20;;
18399;SDS011;9326;49.468;11.008;2022-07-23T13:18:15;8.43;;;7.73;;
18399;SDS011;9326;49.468;11.008;2022-07-23T13:20:43;7.63;;;6.93;;
18399;SDS011;9326;49.468;11.008;2022-07-23T13:23:10;19.27;;;8.43;;
18399;SDS011;9326;49.468;11.008;2022-07-23T13:25:37;30.67;;;8.97;;
18399;SDS011;9326;49.468;11.008;2022-07-23T13:28:04;7.73;;;7.10;;
18399;SDS011;9326;49.468;11.008;2022-07-23T13:30:31;7.30;;;6.73;;
18399;SDS011;9326;49.468;11.008;2022-07-23T13:32:58;8.00;;;7.23;;
18399;SDS011;9326;49.468;11.008;2022-07-23T13:35:27;8.27;;;7.57;;
18399;SDS011;9326;49.468;11.008;2022-07-23T13:37:54;7.47;;;6.87;;
18399;SDS011;9326;49.468;11.008;2022-07-23T13:40:21;7.80;;;7.10;;
18399;SDS011;9326;49.468;11.008;2022-07-23T13:42:48;7.97;;;7.37;;
18399;SDS011;9326;49.468;11.008;2022-07-23T13:45:15;7.90;;;7.30;;
18399;SDS011;9326;49.468;11.008;2022-07-23T13:47:43;7.33;;;6.73;;
18399;SDS011;9326;49.468;11.008;2022-07-23T13:50:10;7.30;;;6.60;;
18399;SDS011;9326;49.468;11.008;2022-07-23T13:52:39;7.70;;;7.10;;
18399;SDS011;9326;49.468;11.008;2022-07-23T13:55:06;7.50;;;6.80;;
18399;SDS011;9326;49.468;11.008;2022-07-23T13:57:33;7.80;;;7.03;;
18399;SDS011;9326;49.468;11.008;2022-07-23T14:00:00;7.40;;;6.80;;
18399;SDS011;9326;49.468;11.008;2022-07-23T14:02:27;7.47;;;6.87;;
18399;SDS011;9326;49.468;11.008;2022-07-23T14:04:55;7.80;;;7.00;;
18399;SDS011;9326;49.468;11.008;2022-07-23T14:07:22;7.70;;;7.00;;
18399;SDS011;9326;49.468;11.008;2022-07-23T14:09:51;7.13;;;6.50;;
18399;SDS011;9326;49.468;11.008;2022-07-23T14:12:18;7.17;;;6.67;;
18399;SDS011;9326;49.468;11.008;2022-07-23T14:14:45;7.80;;;7.10;;
18399;SDS011;9326;49.468;11.008;2022-07-23T14:17:12;7.53;;;6.83;;
18399;SDS011;9326;49.468;11.008;2022-07-23T14:19:39;6.83;;;6.23;;
18399;SDS011;9326;49.468;11.008;2022-07-23T14:22:07;7.57;;;6.97;;
18399;SDS011;9326;49.468;11.008;2022-07-23T14:24:34;8.03;;;7.33;;
18399;SDS011;9326;49.468;11.008;2022-07-23T14:27:02;7.70;;;7.00;;
18399;SDS011;9326;49.468;11.008;2022-07-23T14:29:29;7.00;;;6.43;;
18399;SDS011;9326;49.468;11.008;2022-07-23T14:31:56;6.90;;;6.40;;
18399;SDS011;9326;49.468;11.008;2022-07-23T14:34:23;6.67;;;6.17;;
18399;SDS011;9326;49.468;11.008;2022-07-23T14:36:51;7.03;;;6.43;;
18399;SDS011;9326;49.468;11.008;2022-07-23T14:39:18;7.03;;;6.33;;
18399;SDS011;9326;49.468;11.008;2022-07-23T14:41:45;6.97;;;6.43;;
18399;SDS011;9326;49.468;11.008;2022-07-23T14:44:14;8.07;;;7.47;;
18399;SDS011;9326;49.468;11.008;2022-07-23T14:46:41;7.10;;;6.50;;
18399;SDS011;9326;49.468;11.008;2022-07-23T14:49:08;6.60;;;6.10;;
18399;SDS011;9326;49.468;11.008;2022-07-23T14:51:35;6.80;;;6.20;;
18399;SDS011;9326;49.468;11.008;2022-07-23T14:54:02;6.77;;;6.17;;
18399;SDS011;9326;49.468;11.008;2022-07-23T14:56:29;6.50;;;6.00;;
18399;SDS011;9326;49.468;11.008;2022-07-23T14:58:58;7.30;;;6.70;;
18399;SDS011;9326;49.468;11.008;2022-07-23T15:01:27;6.30;;;5.80;;
18399;SDS011;9326;49.468;11.008;2022-07-23T15:03:54;6.33;;;5.73;;
18399;SDS011;9326;49.468;11.008;2022-07-23T15:06:21;7.20;;;6.60;;
18399;SDS011;9326;49.468;11.008;2022-07-23T15:08:48;6.23;;;5.73;;
18399;SDS011;9326;49.468;11.008;2022-07-23T15:11:15;7.00;;;6.30;;
18399;SDS011;9326;49.468;11.008;2022-07-23T15:13:42;6.63;;;5.97;;
18399;SDS011;9326;49.468;11.008;2022-07-23T15:16:09;6.23;;;5.63;;
18399;SDS011;9326;49.468;11.008;2022-07-23T15:18:38;8.50;;;7.70;;
18399;SDS011;9326;49.468;11.008;2022-07-23T15:21:05;6.57;;;5.97;;
18399;SDS011;9326;49.468;11.008;2022-07-23T15:23:32;6.40;;;5.87;;
18399;SDS011;9326;49.468;11.008;2022-07-23T15:26:00;5.97;;;5.53;;
18399;SDS011;9326;49.468;11.008;2022-07-23T15:28:27;6.30;;;5.80;;
18399;SDS011;9326;49.468;11.008;2022-07-23T15:30:54;6.30;;;5.80;;
18399;SDS011;9326;49.468;11.008;2022-07-23T15:33:21;6.10;;;5.60;;
18399;SDS011;9326;49.468;11.008;2022-07-23T15:35:49;6.30;;;5.80;;
18399;SDS011;9326;49.468;11.008;2022-07-23T15:38:17;6.77;;;6.17;;
18399;SDS011;9326;49.468;11.008;2022-07-23T15:40:44;6.30;;;5.70;;
18399;SDS011;9326;49.468;11.008;2022-07-23T15:43:12;6.40;;;5.80;;
18399;SDS011;9326;49.468;11.008;2022-07-23T15:45:39;6.47;;;5.87;;
18399;SDS011;9326;49.468;11.008;2022-07-23T15:48:06;6.53;;;5.80;;
18399;SDS011;9326;49.468;11.008;2022-07-23T15:50:35;6.27;;;5.77;;
18399;SDS011;9326;49.468;11.008;2022-07-23T15:53:04;6.57;;;5.97;;
18399;SDS011;9326;49.468;11.008;2022-07-23T15:55:31;6.27;;;5.73;;
18399;SDS011;9326;49.468;11.008;2022-07-23T15:57:58;6.60;;;6.10;;
18399;SDS011;9326;49.468;11.008;2022-07-23T16:00:25;6.47;;;5.97;;
18399;SDS011;9326;49.468;11.008;2022-07-23T16:02:52;6.20;;;5.63;;
18399;SDS011;9326;49.468;11.008;2022-07-23T16:05:19;9.47;;;6.43;;
18399;SDS011;9326;49.468;11.008;2022-07-23T16:07:46;7.47;;;6.73;;
18399;SDS011;9326;49.468;11.008;2022-07-23T16:10:15;7.87;;;7.17;;
18399;SDS011;9326;49.468;11.008;2022-07-23T16:12:42;6.80;;;6.30;;
18399;SDS011;9326;49.468;11.008;2022-07-23T16:15:09;6.70;;;6.20;;
18399;SDS011;9326;49.468;11.008;2022-07-23T16:17:36;7.23;;;6.53;;
18399;SDS011;9326;49.468;11.008;2022-07-23T16:20:04;7.03;;;6.33;;
18399;SDS011;9326;49.468;11.008;2022-07-23T16:22:32;7.40;;;6.70;;
18399;SDS011;9326;49.468;11.008;2022-07-23T16:24:59;6.80;;;6.20;;
18399;SDS011;9326;49.468;11.008;2022-07-23T16:27:28;7.00;;;6.47;;
18399;SDS011;9326;49.468;11.008;2022-07-23T16:29:55;7.20;;;6.60;;
18399;SDS011;9326;49.468;11.008;2022-07-23T16:32:22;11.30;;;6.90;;
18399;SDS011;9326;49.468;11.008;2022-07-23T16:34:49;7.13;;;6.57;;
18399;SDS011;9326;49.468;11.008;2022-07-23T16:37:16;7.00;;;6.30;;
18399;SDS011;9326;49.468;11.008;2022-07-23T16:39:43;6.80;;;6.30;;
18399;SDS011;9326;49.468;11.008;2022-07-23T16:42:10;6.97;;;6.47;;
18399;SDS011;9326;49.468;11.008;2022-07-23T16:44:38;7.10;;;6.50;;
18399;SDS011;9326;49.468;11.008;2022-07-23T16:47:06;7.70;;;6.63;;
18399;SDS011;9326;49.468;11.008;2022-07-23T16:49:34;7.27;;;6.70;;
18399;SDS011;9326;49.468;11.008;2022-07-23T16:52:01;6.97;;;6.47;;
18399;SDS011;9326;49.468;11.008;2022-07-23T16:54:29;6.73;;;6.17;;
18399;SDS011;9326;49.468;11.008;2022-07-23T16:56:56;6.77;;;6.17;;
18399;SDS011;9326;49.468;11.008;2022-07-23T16:59:23;7.10;;;6.43;;
18399;SDS011;9326;49.468;11.008;2022-07-23T17:01:52;6.97;;;6.43;;
18399;SDS011;9326;49.468;11.008;2022-07-23T17:04:19;6.53;;;6.03;;
18399;SDS011;9326;49.468;11.008;2022-07-23T17:06:46;6.70;;;6.20;;
18399;SDS011;9326;49.468;11.008;2022-07-23T17:09:13;6.93;;;6.33;;
18399;SDS011;9326;49.468;11.008;2022-07-23T17:11:40;6.73;;;6.23;;
18399;SDS011;9326;49.468;11.008;2022-07-23T17:14:08;6.80;;;6.30;;
18399;SDS011;9326;49.468;11.008;2022-07-23T17:16:35;6.60;;;6.00;;
18399;SDS011;9326;49.468;11.008;2022-07-23T17:19:03;7.03;;;6.13;;
18399;SDS011;9326;49.468;11.008;2022-07-23T17:21:30;6.13;;;5.63;;
18399;SDS011;9326;49.468;11.008;2022-07-23T17:23:58;6.43;;;5.93;;
18399;SDS011;9326;49.468;11.008;2022-07-23T17:26:25;7.03;;;6.40;;
18399;SDS011;9326;49.468;11.008;2022-07-23T17:28:52;6.50;;;5.93;;
18399;SDS011;9326;49.468;11.008;2022-07-23T17:31:19;7.17;;;6.20;;
18399;SDS011;9326;49.468;11.008;2022-07-23T17:33:46;6.47;;;5.87;;
18399;SDS011;9326;49.468;11.008;2022-07-23T17:36:14;6.83;;;6.10;;
18399;SDS011;9326;49.468;11.008;2022-07-23T17:38:44;6.93;;;6.33;;
18399;SDS011;9326;49.468;11.008;2022-07-23T17:41:11;7.73;;;6.73;;
18399;SDS011;9326;49.468;11.008;2022-07-23T17:43:38;7.33;;;6.70;;
18399;SDS011;9326;49.468;11.008;2022-07-23T17:46:05;6.70;;;6.10;;
18399;SDS011;9326;49.468;11.008;2022-07-23T17:48:32;7.33;;;6.63;;
18399;SDS011;9326;49.468;11.008;2022-07-23T17:50:59;7.00;;;6.37;;
18399;SDS011;9326;49.468;11.008;2022-07-23T17:53:28;6.53;;;6.03;;
18399;SDS011;9326;49.468;11.008;2022-07-23T17:55:55;6.87;;;6.17;;
18399;SDS011;9326;49.468;11.008;2022-07-23T17:58:24;7.03;;;6.43;;
18399;SDS011;9326;49.468;11.008;2022-07-23T18:00:51;8.13;;;6.03;;
18399;SDS011;9326;49.468;11.008;2022-07-23T18:03:19;6.63;;;6.13;;
18399;SDS011;9326;49.468;11.008;2022-07-23T18:05:46;7.10;;;6.50;;
18399;SDS011;9326;49.468;11.008;2022-07-23T18:08:13;6.90;;;6.20;;
18399;SDS011;9326;49.468;11.008;2022-07-23T18:10:41;7.00;;;6.40;;
18399;SDS011;9326;49.468;11.008;2022-07-23T18:13:08;6.83;;;6.23;;
18399;SDS011;9326;49.468;11.008;2022-07-23T18:15:35;7.73;;;6.27;;
18399;SDS011;9326;49.468;11.008;2022-07-23T18:18:03;6.73;;;6.23;;
18399;SDS011;9326;49.468;11.008;2022-07-23T18:20:30;6.30;;;5.80;;
18399;SDS011;9326;49.468;11.008;2022-07-23T18:22:57;6.97;;;6.27;;
18399;SDS011;9326;49.468;11.008;2022-07-23T18:25:24;6.70;;;6.10;;
18399;SDS011;9326;49.468;11.008;2022-07-23T18:27:53;6.20;;;5.70;;
18399;SDS011;9326;49.468;11.008;2022-07-23T18:30:20;7.03;;;6.43;;
18399;SDS011;9326;49.468;11.008;2022-07-23T18:32:47;7.20;;;6.20;;
18399;SDS011;9326;49.468;11.008;2022-07-23T18:35:14;6.27;;;5.83;;
18399;SDS011;9326;49.468;11.008;2022-07-23T18:37:41;6.57;;;5.97;;
18399;SDS011;9326;49.468;11.008;2022-07-23T18:40:09;6.40;;;5.80;;
18399;SDS011;9326;49.468;11.008;2022-07-23T18:42:36;7.13;;;6.53;;
18399;SDS011;9326;49.468;11.008;2022-07-23T18:45:06;6.90;;;6.20;;
18399;SDS011;9326;49.468;11.008;2022-07-23T18:47:33;7.10;;;6.50;;
18399;SDS011;9326;49.468;11.008;2022-07-23T18:50:00;7.30;;;6.70;;
18399;SDS011;9326;49.468;11.008;2022-07-23T18:52:27;7.40;;;6.70;;
18399;SDS011;9326;49.468;11.008;2022-07-23T18:54:55;6.93;;;6.43;;
18399;SDS011;9326;49.468;11.008;2022-07-23T18:57:22;7.60;;;7.00;;
18399;SDS011;9326;49.468;11.008;2022-07-23T18:59:49;7.17;;;6.57;;
18399;SDS011;9326;49.468;11.008;2022-07-23T19:02:17;7.00;;;6.37;;
18399;SDS011;9326;49.468;11.008;2022-07-23T19:04:44;7.97;;;7.17;;
18399;SDS011;9326;49.468;11.008;2022-07-23T19:07:13;7.07;;;6.47;;
18399;SDS011;9326;49.468;11.008;2022-07-23T19:09:40;7.87;;;7.10;;
18399;SDS011;9326;49.468;11.008;2022-07-23T19:12:07;7.30;;;6.70;;
18399;SDS011;9326;49.468;11.008;2022-07-23T19:14:34;6.80;;;6.30;;
18399;SDS011;9326;49.468;11.008;2022-07-23T19:17:01;7.23;;;6.53;;
18399;SDS011;9326;49.468;11.008;2022-07-23T19:19:30;7.10;;;6.60;;
18399;SDS011;9326;49.468;11.008;2022-07-23T19:21:57;7.10;;;6.40;;
18399;SDS011;9326;49.468;11.008;2022-07-23T19:24:24;7.10;;;6.50;;
18399;SDS011;9326;49.468;11.008;2022-07-23T19:26:52;7.23;;;6.63;;
18399;SDS011;9326;49.468;11.008;2022-07-23T19:29:19;7.10;;;6.40;;
18399;SDS011;9326;49.468;11.008;2022-07-23T19:31:46;7.03;;;6.47;;
18399;SDS011;9326;49.468;11.008;2022-07-23T19:34:13;7.43;;;6.73;;
18399;SDS011;9326;49.468;11.008;2022-07-23T19:36:41;7.67;;;6.97;;
18399;SDS011;9326;49.468;11.008;2022-07-23T19:39:08;7.80;;;7.07;;
18399;SDS011;9326;49.468;11.008;2022-07-23T19:41:35;9.47;;;8.57;;
18399;SDS011;9326;49.468;11.008;2022-07-23T19:44:03;9.23;;;8.33;;
18399;SDS011;9326;49.468;11.008;2022-07-23T19:46:30;8.93;;;8.13;;
18399;SDS011;9326;49.468;11.008;2022-07-23T19:48:57;7.93;;;7.13;;
18399;SDS011;9326;49.468;11.008;2022-07-23T19:51:24;7.30;;;6.70;;
18399;SDS011;9326;49.468;11.008;2022-07-23T19:53:52;7.73;;;7.13;;
18399;SDS011;9326;49.468;11.008;2022-07-23T19:56:19;7.03;;;6.43;;
18399;SDS011;9326;49.468;11.008;2022-07-23T19:58:48;8.03;;;7.13;;
18399;SDS011;9326;49.468;11.008;2022-07-23T20:01:15;8.97;;;8.17;;
18399;SDS011;9326;49.468;11.008;2022-07-23T20:03:42;7.57;;;6.97;;
18399;SDS011;9326;49.468;11.008;2022-07-23T20:06:09;7.80;;;7.07;;
18399;SDS011;9326;49.468;11.008;2022-07-23T20:08:36;9.00;;;8.30;;